sensor_id;sensor_type;location;lat;lon;timestamp;P1;durP1;ratioP1;P2;durP2;ratioP2
12721;SDS011;6425;50.316;8.114;2023-11-21T00:00:00;13.3;;;8.5;;
12721;SDS011;6425;50.316;8.114;2023-11-21T00:03:00;13.3;;;8.5;;
12721;SDS011;6425;50.316;8.114;2023-11-21T00:06:00;9.4;;;6.3;;
12721;SDS011;6425;50.316;8.114;2023-11-21T00:09:00;18.4;;;8.8;;
12721;SDS011;6425;50.316;8.114;2023-11-21T00:12:00;18.4;;;8.8;;
12721;SDS011;6425;50.316;8.114;2023-11-21T00:15:00;10.3;;;7.3;;
12721;SDS011;6425;50.316;8.114;2023-11-21T00:18:00;10.3;;;7.3;;
12721;SDS011;6425;50.316;8.114;2023-11-21T00:21:00;12.8;;;7.3;;
12721;SDS011;6425;50.316;8.114;2023-11-21T00:24:00;13.7;;;7.7;;
12721;SDS011;6425;50.316;8.114;2023-11-21T00:27:00;13.7;;;7.7;;
12721;SDS011;6425;50.316;8.114;2023-11-21T00:30:00;11.5;;;7;;
12721;SDS011;6425;50.316;8.114;2023-11-21T00:33:00;11.5;;;7;;
12721;SDS011;6425;50.316;8.114;2023-11-21T00:36:00;14.2;;;7.8;;
12721;SDS011;6425;50.316;8.114;2023-11-21T00:39:00;14.2;;;7.5;;
12721;SDS011;6425;50.316;8.114;2023-11-21T00:42:00;14.2;;;7.5;;
12721;SDS011;6425;50.316;8.114;2023-11-21T00:45:00;15.4;;;8.6;;
12721;SDS011;6425;50.316;8.114;2023-11-21T00:48:00;15.4;;;8.6;;
12721;SDS011;6425;50.316;8.114;2023-11-21T00:51:00;12.8;;;8.8;;
12721;SDS011;6425;50.316;8.114;2023-11-21T00:54:00;15.3;;;8;;
12721;SDS011;6425;50.316;8.114;2023-11-21T00:57:00;15.3;;;8;;
12721;SDS011;6425;50.316;8.114;2023-11-21T01:00:00;17.5;;;8.5;;
12721;SDS011;6425;50.316;8.114;2023-11-21T01:03:00;17.5;;;8.5;;
12721;SDS011;6425;50.316;8.114;2023-11-21T01:06:00;13.9;;;9;;
12721;SDS011;6425;50.316;8.114;2023-11-21T01:09:00;13.2;;;7.2;;
12721;SDS011;6425;50.316;8.114;2023-11-21T01:12:00;13.2;;;7.2;;
12721;SDS011;6425;50.316;8.114;2023-11-21T01:15:00;18.1;;;9.8;;
12721;SDS011;6425;50.316;8.114;2023-11-21T01:18:00;18.1;;;9.8;;
12721;SDS011;6425;50.316;8.114;2023-11-21T01:21:00;17.9;;;9.2;;
12721;SDS011;6425;50.316;8.114;2023-11-21T01:24:00;17.3;;;8;;
12721;SDS011;6425;50.316;8.114;2023-11-21T01:27:00;17.3;;;8;;
12721;SDS011;6425;50.316;8.114;2023-11-21T01:30:00;14.9;;;8.6;;
12721;SDS011;6425;50.316;8.114;2023-11-21T01:33:00;14.9;;;8.6;;
12721;SDS011;6425;50.316;8.114;2023-11-21T01:36:00;14.5;;;8.3;;
12721;SDS011;6425;50.316;8.114;2023-11-21T01:39:00;12.9;;;7.4;;
12721;SDS011;6425;50.316;8.114;2023-11-21T01:42:00;12.9;;;7.4;;
12721;SDS011;6425;50.316;8.114;2023-11-21T01:45:00;23.9;;;8.6;;
12721;SDS011;6425;50.316;8.114;2023-11-21T01:48:00;23.9;;;8.6;;
12721;SDS011;6425;50.316;8.114;2023-11-21T01:51:00;31.6;;;10.5;;
12721;SDS011;6425;50.316;8.114;2023-11-21T01:54:00;274.4;;;21.9;;
12721;SDS011;6425;50.316;8.114;2023-11-21T01:57:00;274.4;;;21.9;;
12721;SDS011;6425;50.316;8.114;2023-11-21T02:00:00;395.1;;;27.9;;
12721;SDS011;6425;50.316;8.114;2023-11-21T02:03:00;395.1;;;27.9;;
12721;SDS011;6425;50.316;8.114;2023-11-21T02:06:00;160.2;;;16.2;;
12721;SDS011;6425;50.316;8.114;2023-11-21T02:09:00;61.4;;;13;;
12721;SDS011;6425;50.316;8.114;2023-11-21T02:12:00;61.4;;;13;;
12721;SDS011;6425;50.316;8.114;2023-11-21T02:15:00;40.3;;;12.8;;
12721;SDS011;6425;50.316;8.114;2023-11-21T02:18:00;40.3;;;12.8;;
12721;SDS011;6425;50.316;8.114;2023-11-21T02:21:00;30.5;;;12.9;;
12721;SDS011;6425;50.316;8.114;2023-11-21T02:24:00;28.9;;;13.1;;
12721;SDS011;6425;50.316;8.114;2023-11-21T02:27:00;28.9;;;13.1;;
12721;SDS011;6425;50.316;8.114;2023-11-21T02:30:00;43.9;;;17.6;;
12721;SDS011;6425;50.316;8.114;2023-11-21T02:33:00;43.9;;;17.6;;
12721;SDS011;6425;50.316;8.114;2023-11-21T02:36:00;45.6;;;17.5;;
12721;SDS011;6425;50.316;8.114;2023-11-21T02:39:00;58.2;;;19.1;;
12721;SDS011;6425;50.316;8.114;2023-11-21T02:42:00;58.2;;;19.1;;
12721;SDS011;6425;50.316;8.114;2023-11-21T02:45:00;44.1;;;17.5;;
12721;SDS011;6425;50.316;8.114;2023-11-21T02:48:00;44.1;;;17.5;;
12721;SDS011;6425;50.316;8.114;2023-11-21T02:51:00;32.3;;;16;;
12721;SDS011;6425;50.316;8.114;2023-11-21T02:54:00;29.5;;;14.4;;
12721;SDS011;6425;50.316;8.114;2023-11-21T02:57:00;29.5;;;14.4;;
12721;SDS011;6425;50.316;8.114;2023-11-21T03:00:00;35;;;15.3;;
12721;SDS011;6425;50.316;8.114;2023-11-21T03:03:00;35;;;15.3;;
12721;SDS011;6425;50.316;8.114;2023-11-21T03:06:00;28.9;;;12.9;;
12721;SDS011;6425;50.316;8.114;2023-11-21T03:09:00;21;;;10.9;;
12721;SDS011;6425;50.316;8.114;2023-11-21T03:12:00;21;;;10.9;;
12721;SDS011;6425;50.316;8.114;2023-11-21T03:15:00;21.9;;;11.6;;
12721;SDS011;6425;50.316;8.114;2023-11-21T03:18:00;22.2;;;11.7;;
12721;SDS011;6425;50.316;8.114;2023-11-21T03:21:00;22.4;;;11.8;;
12721;SDS011;6425;50.316;8.114;2023-11-21T03:24:00;23.3;;;12.1;;
12721;SDS011;6425;50.316;8.114;2023-11-21T03:27:00;23.3;;;12.1;;
12721;SDS011;6425;50.316;8.114;2023-11-21T03:30:00;21.7;;;12.1;;
12721;SDS011;6425;50.316;8.114;2023-11-21T03:33:00;24.5;;;11.9;;
12721;SDS011;6425;50.316;8.114;2023-11-21T03:36:00;24.5;;;11.9;;
12721;SDS011;6425;50.316;8.114;2023-11-21T03:39:00;19.5;;;11.1;;
12721;SDS011;6425;50.316;8.114;2023-11-21T03:42:00;19.5;;;11.1;;
12721;SDS011;6425;50.316;8.114;2023-11-21T03:45:00;20.3;;;12.1;;
12721;SDS011;6425;50.316;8.114;2023-11-21T03:48:00;19.9;;;10.5;;
12721;SDS011;6425;50.316;8.114;2023-11-21T03:51:00;19.9;;;10.5;;
12721;SDS011;6425;50.316;8.114;2023-11-21T03:54:00;19.2;;;9.5;;
12721;SDS011;6425;50.316;8.114;2023-11-21T03:57:00;19.2;;;9.5;;
12721;SDS011;6425;50.316;8.114;2023-11-21T04:00:00;17.4;;;9.6;;
12721;SDS011;6425;50.316;8.114;2023-11-21T04:03:00;15.2;;;8.5;;
12721;SDS011;6425;50.316;8.114;2023-11-21T04:06:00;15.2;;;8.5;;
12721;SDS011;6425;50.316;8.114;2023-11-21T04:09:00;16.1;;;7.8;;
12721;SDS011;6425;50.316;8.114;2023-11-21T04:12:00;16.1;;;7.8;;
12721;SDS011;6425;50.316;8.114;2023-11-21T04:15:00;10.1;;;6.4;;
12721;SDS011;6425;50.316;8.114;2023-11-21T04:18:00;10;;;5.9;;
12721;SDS011;6425;50.316;8.114;2023-11-21T04:21:00;10;;;5.9;;
12721;SDS011;6425;50.316;8.114;2023-11-21T04:24:00;8.8;;;6.6;;
12721;SDS011;6425;50.316;8.114;2023-11-21T04:27:00;8.8;;;6.6;;
12721;SDS011;6425;50.316;8.114;2023-11-21T04:30:00;11.5;;;7.3;;
12721;SDS011;6425;50.316;8.114;2023-11-21T04:33:00;11.2;;;7.5;;
12721;SDS011;6425;50.316;8.114;2023-11-21T04:36:00;11.2;;;7.5;;
12721;SDS011;6425;50.316;8.114;2023-11-21T04:39:00;12.8;;;7.8;;
12721;SDS011;6425;50.316;8.114;2023-11-21T04:42:00;12.8;;;7.8;;
12721;SDS011;6425;50.316;8.114;2023-11-21T04:45:00;15.3;;;8.6;;
12721;SDS011;6425;50.316;8.114;2023-11-21T04:48:00;12.8;;;8.3;;
12721;SDS011;6425;50.316;8.114;2023-11-21T04:51:00;12.8;;;8.3;;
12721;SDS011;6425;50.316;8.114;2023-11-21T04:54:00;10.1;;;7.1;;
12721;SDS011;6425;50.316;8.114;2023-11-21T04:57:00;10.1;;;7.1;;
12721;SDS011;6425;50.316;8.114;2023-11-21T05:00:00;10.6;;;7.1;;
12721;SDS011;6425;50.316;8.114;2023-11-21T05:03:00;10.5;;;7.2;;
12721;SDS011;6425;50.316;8.114;2023-11-21T05:06:00;10.5;;;7.2;;
12721;SDS011;6425;50.316;8.114;2023-11-21T05:09:00;10.7;;;7.7;;
12721;SDS011;6425;50.316;8.114;2023-11-21T05:12:00;10.7;;;7.7;;
12721;SDS011;6425;50.316;8.114;2023-11-21T05:15:00;11.9;;;8.4;;
12721;SDS011;6425;50.316;8.114;2023-11-21T05:18:00;10.6;;;7.5;;
12721;SDS011;6425;50.316;8.114;2023-11-21T05:21:00;10.6;;;7.5;;
12721;SDS011;6425;50.316;8.114;2023-11-21T05:24:00;15.3;;;8.7;;
12721;SDS011;6425;50.316;8.114;2023-11-21T05:27:00;15.3;;;8.7;;
12721;SDS011;6425;50.316;8.114;2023-11-21T05:30:00;13.8;;;9.1;;
12721;SDS011;6425;50.316;8.114;2023-11-21T05:33:00;12.4;;;7.5;;
12721;SDS011;6425;50.316;8.114;2023-11-21T05:36:00;12.4;;;7.5;;
12721;SDS011;6425;50.316;8.114;2023-11-21T05:39:00;12.6;;;7.8;;
12721;SDS011;6425;50.316;8.114;2023-11-21T05:42:00;12.6;;;7.8;;
12721;SDS011;6425;50.316;8.114;2023-11-21T05:45:00;9.6;;;6.1;;
12721;SDS011;6425;50.316;8.114;2023-11-21T05:48:00;10.7;;;6.8;;
12721;SDS011;6425;50.316;8.114;2023-11-21T05:51:00;10.7;;;6.8;;
12721;SDS011;6425;50.316;8.114;2023-11-21T05:54:00;9.5;;;6.3;;
12721;SDS011;6425;50.316;8.114;2023-11-21T05:57:00;9.5;;;6.3;;
12721;SDS011;6425;50.316;8.114;2023-11-21T06:00:00;7.8;;;5.8;;
12721;SDS011;6425;50.316;8.114;2023-11-21T06:03:00;10.1;;;6.3;;
12721;SDS011;6425;50.316;8.114;2023-11-21T06:06:00;10.1;;;6.3;;
12721;SDS011;6425;50.316;8.114;2023-11-21T06:09:00;9.1;;;5.7;;
12721;SDS011;6425;50.316;8.114;2023-11-21T06:12:00;9.1;;;5.7;;
12721;SDS011;6425;50.316;8.114;2023-11-21T06:15:00;7.3;;;6;;
12721;SDS011;6425;50.316;8.114;2023-11-21T06:18:00;8.2;;;5.9;;
12721;SDS011;6425;50.316;8.114;2023-11-21T06:21:00;8.2;;;5.9;;
12721;SDS011;6425;50.316;8.114;2023-11-21T06:24:00;6.5;;;5.8;;
12721;SDS011;6425;50.316;8.114;2023-11-21T06:27:00;6.5;;;5.8;;
12721;SDS011;6425;50.316;8.114;2023-11-21T06:30:00;9.8;;;7;;
12721;SDS011;6425;50.316;8.114;2023-11-21T06:33:00;9.4;;;6.8;;
12721;SDS011;6425;50.316;8.114;2023-11-21T06:36:00;9.4;;;6.8;;
12721;SDS011;6425;50.316;8.114;2023-11-21T06:39:00;8.7;;;6.5;;
12721;SDS011;6425;50.316;8.114;2023-11-21T06:42:00;8.3;;;6;;
12721;SDS011;6425;50.316;8.114;2023-11-21T06:45:00;8.2;;;5.9;;
12721;SDS011;6425;50.316;8.114;2023-11-21T06:48:00;7.1;;;6.2;;
12721;SDS011;6425;50.316;8.114;2023-11-21T06:51:00;7.1;;;6.2;;
12721;SDS011;6425;50.316;8.114;2023-11-21T06:54:00;9;;;6.6;;
12721;SDS011;6425;50.316;8.114;2023-11-21T06:57:00;8;;;5.7;;
12721;SDS011;6425;50.316;8.114;2023-11-21T07:00:00;8;;;5.7;;
12721;SDS011;6425;50.316;8.114;2023-11-21T07:03:00;7.1;;;6.1;;
12721;SDS011;6425;50.316;8.114;2023-11-21T07:06:00;7.1;;;6.1;;
12721;SDS011;6425;50.316;8.114;2023-11-21T07:09:00;6.2;;;5.5;;
12721;SDS011;6425;50.316;8.114;2023-11-21T07:12:00;6.3;;;5.2;;
12721;SDS011;6425;50.316;8.114;2023-11-21T07:15:00;6.3;;;5.2;;
12721;SDS011;6425;50.316;8.114;2023-11-21T07:18:00;7.7;;;5.4;;
12721;SDS011;6425;50.316;8.114;2023-11-21T07:21:00;7.7;;;5.4;;
12721;SDS011;6425;50.316;8.114;2023-11-21T07:24:00;8.1;;;6.8;;
12721;SDS011;6425;50.316;8.114;2023-11-21T07:27:00;17.3;;;11.7;;
12721;SDS011;6425;50.316;8.114;2023-11-21T07:30:00;17.3;;;11.7;;
12721;SDS011;6425;50.316;8.114;2023-11-21T07:33:00;15.2;;;9;;
12721;SDS011;6425;50.316;8.114;2023-11-21T07:36:00;15.2;;;9;;
12721;SDS011;6425;50.316;8.114;2023-11-21T07:39:00;9.3;;;6;;
12721;SDS011;6425;50.316;8.114;2023-11-21T07:42:00;7.1;;;5;;
12721;SDS011;6425;50.316;8.114;2023-11-21T07:45:00;7.1;;;5;;
12721;SDS011;6425;50.316;8.114;2023-11-21T07:48:00;12.2;;;6.3;;
12721;SDS011;6425;50.316;8.114;2023-11-21T07:51:00;12.2;;;6.3;;
12721;SDS011;6425;50.316;8.114;2023-11-21T07:54:00;10;;;6.8;;
12721;SDS011;6425;50.316;8.114;2023-11-21T07:57:00;13.4;;;6.9;;
12721;SDS011;6425;50.316;8.114;2023-11-21T08:00:00;13.4;;;6.9;;
12721;SDS011;6425;50.316;8.114;2023-11-21T08:03:00;12.6;;;7.2;;
12721;SDS011;6425;50.316;8.114;2023-11-21T08:06:00;12.6;;;7.2;;
12721;SDS011;6425;50.316;8.114;2023-11-21T08:09:00;11.2;;;7.1;;
12721;SDS011;6425;50.316;8.114;2023-11-21T08:12:00;12.8;;;7.9;;
12721;SDS011;6425;50.316;8.114;2023-11-21T08:15:00;12.8;;;7.9;;
12721;SDS011;6425;50.316;8.114;2023-11-21T08:18:00;11.7;;;7.8;;
12721;SDS011;6425;50.316;8.114;2023-11-21T08:21:00;11.7;;;7.8;;
12721;SDS011;6425;50.316;8.114;2023-11-21T08:24:00;10.3;;;7.5;;
12721;SDS011;6425;50.316;8.114;2023-11-21T08:27:00;14.3;;;8.4;;
12721;SDS011;6425;50.316;8.114;2023-11-21T08:30:00;14.3;;;8.4;;
12721;SDS011;6425;50.316;8.114;2023-11-21T08:33:00;13.1;;;8.1;;
12721;SDS011;6425;50.316;8.114;2023-11-21T08:36:00;13.1;;;8.1;;
12721;SDS011;6425;50.316;8.114;2023-11-21T08:39:00;10.6;;;7.9;;
12721;SDS011;6425;50.316;8.114;2023-11-21T08:42:00;13.8;;;8.2;;
12721;SDS011;6425;50.316;8.114;2023-11-21T08:45:00;13.8;;;8.2;;
12721;SDS011;6425;50.316;8.114;2023-11-21T08:48:00;13.6;;;8.4;;
12721;SDS011;6425;50.316;8.114;2023-11-21T08:51:00;13.6;;;8.4;;
12721;SDS011;6425;50.316;8.114;2023-11-21T08:54:00;15.2;;;9.5;;
12721;SDS011;6425;50.316;8.114;2023-11-21T08:57:00;13.1;;;8.7;;
12721;SDS011;6425;50.316;8.114;2023-11-21T09:00:00;13.1;;;8.7;;
12721;SDS011;6425;50.316;8.114;2023-11-21T09:03:00;11.8;;;7.6;;
12721;SDS011;6425;50.316;8.114;2023-11-21T09:06:00;11.8;;;7.6;;
12721;SDS011;6425;50.316;8.114;2023-11-21T09:09:00;10.7;;;7.8;;
12721;SDS011;6425;50.316;8.114;2023-11-21T09:12:00;11.1;;;7.3;;
12721;SDS011;6425;50.316;8.114;2023-11-21T09:15:00;11.1;;;7.3;;
12721;SDS011;6425;50.316;8.114;2023-11-21T09:18:00;10.9;;;6.9;;
12721;SDS011;6425;50.316;8.114;2023-11-21T09:21:00;10.9;;;6.9;;
12721;SDS011;6425;50.316;8.114;2023-11-21T09:24:00;13.5;;;8.2;;
12721;SDS011;6425;50.316;8.114;2023-11-21T09:27:00;10;;;6.6;;
12721;SDS011;6425;50.316;8.114;2023-11-21T09:30:00;10;;;6.6;;
12721;SDS011;6425;50.316;8.114;2023-11-21T09:33:00;13.6;;;8;;
12721;SDS011;6425;50.316;8.114;2023-11-21T09:36:00;13.6;;;8;;
12721;SDS011;6425;50.316;8.114;2023-11-21T09:39:00;14.7;;;8.4;;
12721;SDS011;6425;50.316;8.114;2023-11-21T09:42:03;12.6;;;8.4;;
12721;SDS011;6425;50.316;8.114;2023-11-21T09:45:02;12.6;;;8.4;;
12721;SDS011;6425;50.316;8.114;2023-11-21T09:48:00;9.7;;;6.8;;
12721;SDS011;6425;50.316;8.114;2023-11-21T09:51:00;9.7;;;6.8;;
12721;SDS011;6425;50.316;8.114;2023-11-21T09:54:00;12.2;;;7.1;;
12721;SDS011;6425;50.316;8.114;2023-11-21T09:57:00;12.8;;;6.8;;
12721;SDS011;6425;50.316;8.114;2023-11-21T10:00:00;12.8;;;6.8;;
12721;SDS011;6425;50.316;8.114;2023-11-21T10:03:00;13;;;7.6;;
12721;SDS011;6425;50.316;8.114;2023-11-21T10:06:05;14.2;;;8;;
12721;SDS011;6425;50.316;8.114;2023-11-21T10:09:00;14.2;;;8;;
12721;SDS011;6425;50.316;8.114;2023-11-21T10:12:00;16.5;;;8.4;;
12721;SDS011;6425;50.316;8.114;2023-11-21T10:15:00;16.5;;;8.4;;
12721;SDS011;6425;50.316;8.114;2023-11-21T10:18:00;12.7;;;8.1;;
12721;SDS011;6425;50.316;8.114;2023-11-21T10:21:00;15.2;;;8.8;;
12721;SDS011;6425;50.316;8.114;2023-11-21T10:24:00;15.2;;;8.8;;
12721;SDS011;6425;50.316;8.114;2023-11-21T10:27:00;14.9;;;9.5;;
12721;SDS011;6425;50.316;8.114;2023-11-21T10:30:00;14.9;;;9.5;;
12721;SDS011;6425;50.316;8.114;2023-11-21T10:33:00;16.2;;;10.2;;
12721;SDS011;6425;50.316;8.114;2023-11-21T10:36:00;17.6;;;9.5;;
12721;SDS011;6425;50.316;8.114;2023-11-21T10:39:00;17.6;;;9.5;;
12721;SDS011;6425;50.316;8.114;2023-11-21T10:42:00;18.4;;;10.9;;
12721;SDS011;6425;50.316;8.114;2023-11-21T10:45:00;18.4;;;10.9;;
12721;SDS011;6425;50.316;8.114;2023-11-21T10:48:00;21.7;;;12;;
12721;SDS011;6425;50.316;8.114;2023-11-21T10:51:00;20.5;;;10.8;;
12721;SDS011;6425;50.316;8.114;2023-11-21T10:54:00;20.5;;;10.8;;
12721;SDS011;6425;50.316;8.114;2023-11-21T10:57:00;17.6;;;11.5;;
12721;SDS011;6425;50.316;8.114;2023-11-21T11:00:00;17.6;;;11.5;;
12721;SDS011;6425;50.316;8.114;2023-11-21T11:03:00;20.2;;;12.5;;
12721;SDS011;6425;50.316;8.114;2023-11-21T11:06:00;20;;;12.2;;
12721;SDS011;6425;50.316;8.114;2023-11-21T11:09:00;20;;;12.2;;
12721;SDS011;6425;50.316;8.114;2023-11-21T11:12:00;19.7;;;12.1;;
12721;SDS011;6425;50.316;8.114;2023-11-21T11:15:00;19.7;;;12.1;;
12721;SDS011;6425;50.316;8.114;2023-11-21T11:18:00;18.2;;;11.6;;
12721;SDS011;6425;50.316;8.114;2023-11-21T11:21:01;21.6;;;13;;
12721;SDS011;6425;50.316;8.114;2023-11-21T11:24:05;21.6;;;13;;
12721;SDS011;6425;50.316;8.114;2023-11-21T11:27:01;24.8;;;14.7;;
12721;SDS011;6425;50.316;8.114;2023-11-21T11:30:02;24.8;;;14.7;;
12721;SDS011;6425;50.316;8.114;2023-11-21T11:33:02;24.2;;;13.5;;
12721;SDS011;6425;50.316;8.114;2023-11-21T11:36:00;22.8;;;14.5;;
12721;SDS011;6425;50.316;8.114;2023-11-21T11:39:00;22.8;;;14.5;;
12721;SDS011;6425;50.316;8.114;2023-11-21T11:42:01;36.8;;;18.9;;
12721;SDS011;6425;50.316;8.114;2023-11-21T11:45:00;36.8;;;18.9;;
12721;SDS011;6425;50.316;8.114;2023-11-21T11:48:00;23.5;;;13.5;;
12721;SDS011;6425;50.316;8.114;2023-11-21T11:51:01;26.2;;;13.3;;
12721;SDS011;6425;50.316;8.114;2023-11-21T11:54:00;26.2;;;13.3;;
12721;SDS011;6425;50.316;8.114;2023-11-21T11:57:00;22.2;;;14.1;;
12721;SDS011;6425;50.316;8.114;2023-11-21T12:00:08;22.2;;;14.1;;
12721;SDS011;6425;50.316;8.114;2023-11-21T12:03:00;24.9;;;13.9;;
12721;SDS011;6425;50.316;8.114;2023-11-21T12:06:00;21.8;;;13;;
12721;SDS011;6425;50.316;8.114;2023-11-21T12:09:00;21.8;;;13;;
12721;SDS011;6425;50.316;8.114;2023-11-21T12:12:00;23.9;;;14.2;;
12721;SDS011;6425;50.316;8.114;2023-11-21T12:15:00;23.9;;;14.2;;
12721;SDS011;6425;50.316;8.114;2023-11-21T12:18:00;24.6;;;14.6;;
12721;SDS011;6425;50.316;8.114;2023-11-21T12:21:00;20;;;12;;
12721;SDS011;6425;50.316;8.114;2023-11-21T12:24:00;20;;;12;;
12721;SDS011;6425;50.316;8.114;2023-11-21T12:27:00;18.9;;;11.1;;
12721;SDS011;6425;50.316;8.114;2023-11-21T12:30:00;18.9;;;11.1;;
12721;SDS011;6425;50.316;8.114;2023-11-21T12:33:00;18.1;;;12;;
12721;SDS011;6425;50.316;8.114;2023-11-21T12:36:00;12.7;;;7.7;;
12721;SDS011;6425;50.316;8.114;2023-11-21T12:39:00;12.7;;;7.7;;
12721;SDS011;6425;50.316;8.114;2023-11-21T12:42:00;10.4;;;7.4;;
12721;SDS011;6425;50.316;8.114;2023-11-21T12:45:08;10.4;;;7.4;;
12721;SDS011;6425;50.316;8.114;2023-11-21T12:48:00;9.9;;;7.1;;
12721;SDS011;6425;50.316;8.114;2023-11-21T12:51:00;13.6;;;8.1;;
12721;SDS011;6425;50.316;8.114;2023-11-21T12:54:00;13.6;;;8.1;;
12721;SDS011;6425;50.316;8.114;2023-11-21T12:57:00;12.3;;;9.3;;
12721;SDS011;6425;50.316;8.114;2023-11-21T13:00:00;12.3;;;9.3;;
12721;SDS011;6425;50.316;8.114;2023-11-21T13:03:00;11.5;;;7.8;;
12721;SDS011;6425;50.316;8.114;2023-11-21T13:06:00;10.5;;;8.3;;
12721;SDS011;6425;50.316;8.114;2023-11-21T13:09:00;10.5;;;8.3;;
12721;SDS011;6425;50.316;8.114;2023-11-21T13:12:00;15.1;;;8.6;;
12721;SDS011;6425;50.316;8.114;2023-11-21T13:15:03;15.1;;;8.6;;
12721;SDS011;6425;50.316;8.114;2023-11-21T13:18:00;13.5;;;9;;
12721;SDS011;6425;50.316;8.114;2023-11-21T13:21:02;11.9;;;7.6;;
12721;SDS011;6425;50.316;8.114;2023-11-21T13:24:00;11.9;;;7.6;;
12721;SDS011;6425;50.316;8.114;2023-11-21T13:27:00;12.3;;;8;;
12721;SDS011;6425;50.316;8.114;2023-11-21T13:30:00;13.5;;;8;;
12721;SDS011;6425;50.316;8.114;2023-11-21T13:33:00;13.9;;;8;;
12721;SDS011;6425;50.316;8.114;2023-11-21T13:36:00;10.6;;;8.4;;
12721;SDS011;6425;50.316;8.114;2023-11-21T13:39:00;10.6;;;8.4;;
12721;SDS011;6425;50.316;8.114;2023-11-21T13:42:00;12.3;;;9.1;;
12721;SDS011;6425;50.316;8.114;2023-11-21T13:45:00;14.9;;;9.4;;
12721;SDS011;6425;50.316;8.114;2023-11-21T13:48:00;14.9;;;9.4;;
12721;SDS011;6425;50.316;8.114;2023-11-21T13:51:00;17.9;;;10.5;;
12721;SDS011;6425;50.316;8.114;2023-11-21T13:54:00;17.9;;;10.5;;
12721;SDS011;6425;50.316;8.114;2023-11-21T13:57:00;16.8;;;10.1;;
12721;SDS011;6425;50.316;8.114;2023-11-21T14:00:00;13.9;;;8.9;;
12721;SDS011;6425;50.316;8.114;2023-11-21T14:03:00;13.9;;;8.9;;
12721;SDS011;6425;50.316;8.114;2023-11-21T14:06:00;14.3;;;9.3;;
12721;SDS011;6425;50.316;8.114;2023-11-21T14:09:00;14.3;;;9.3;;
12721;SDS011;6425;50.316;8.114;2023-11-21T14:12:00;15;;;10;;
12721;SDS011;6425;50.316;8.114;2023-11-21T14:15:00;15.7;;;9.8;;
12721;SDS011;6425;50.316;8.114;2023-11-21T14:18:00;15.7;;;9.8;;
12721;SDS011;6425;50.316;8.114;2023-11-21T14:21:00;15.2;;;9.8;;
12721;SDS011;6425;50.316;8.114;2023-11-21T14:24:00;15.2;;;9.8;;
12721;SDS011;6425;50.316;8.114;2023-11-21T14:27:00;19.8;;;11.2;;
12721;SDS011;6425;50.316;8.114;2023-11-21T14:30:00;18.4;;;11.3;;
12721;SDS011;6425;50.316;8.114;2023-11-21T14:33:00;18.4;;;11.3;;
12721;SDS011;6425;50.316;8.114;2023-11-21T14:36:00;19.7;;;12.2;;
12721;SDS011;6425;50.316;8.114;2023-11-21T14:39:00;19.7;;;12.2;;
12721;SDS011;6425;50.316;8.114;2023-11-21T14:42:00;21.5;;;12.4;;
12721;SDS011;6425;50.316;8.114;2023-11-21T14:45:00;19.9;;;11.9;;
12721;SDS011;6425;50.316;8.114;2023-11-21T14:48:00;19.9;;;11.9;;
12721;SDS011;6425;50.316;8.114;2023-11-21T14:51:00;21.5;;;12;;
12721;SDS011;6425;50.316;8.114;2023-11-21T14:54:00;21.5;;;12;;
12721;SDS011;6425;50.316;8.114;2023-11-21T14:57:00;23.2;;;13.5;;
12721;SDS011;6425;50.316;8.114;2023-11-21T15:00:00;24.6;;;13.3;;
12721;SDS011;6425;50.316;8.114;2023-11-21T15:03:00;24.6;;;13.3;;
12721;SDS011;6425;50.316;8.114;2023-11-21T15:06:00;22.3;;;12.9;;
12721;SDS011;6425;50.316;8.114;2023-11-21T15:09:00;22.3;;;12.9;;
12721;SDS011;6425;50.316;8.114;2023-11-21T15:12:00;26.2;;;14.5;;
12721;SDS011;6425;50.316;8.114;2023-11-21T15:15:00;39.8;;;20.8;;
12721;SDS011;6425;50.316;8.114;2023-11-21T15:18:00;39.8;;;20.8;;
12721;SDS011;6425;50.316;8.114;2023-11-21T15:21:00;26;;;13.2;;
12721;SDS011;6425;50.316;8.114;2023-11-21T15:24:00;26;;;13.2;;
12721;SDS011;6425;50.316;8.114;2023-11-21T15:27:00;25.7;;;14;;
12721;SDS011;6425;50.316;8.114;2023-11-21T15:30:00;25;;;12.4;;
12721;SDS011;6425;50.316;8.114;2023-11-21T15:33:00;25;;;12.4;;
12721;SDS011;6425;50.316;8.114;2023-11-21T15:36:00;23.8;;;12.8;;
12721;SDS011;6425;50.316;8.114;2023-11-21T15:39:00;23.8;;;12.8;;
12721;SDS011;6425;50.316;8.114;2023-11-21T15:42:00;29.5;;;13.9;;
12721;SDS011;6425;50.316;8.114;2023-11-21T15:45:00;25.5;;;12.7;;
12721;SDS011;6425;50.316;8.114;2023-11-21T15:48:00;25.5;;;12.7;;
12721;SDS011;6425;50.316;8.114;2023-11-21T15:51:00;30.2;;;14.5;;
12721;SDS011;6425;50.316;8.114;2023-11-21T15:54:00;30.2;;;14.5;;
12721;SDS011;6425;50.316;8.114;2023-11-21T15:57:00;28.3;;;15.5;;
12721;SDS011;6425;50.316;8.114;2023-11-21T16:00:00;31;;;16.1;;
12721;SDS011;6425;50.316;8.114;2023-11-21T16:03:00;31;;;16.1;;
12721;SDS011;6425;50.316;8.114;2023-11-21T16:06:00;31.6;;;15.5;;
12721;SDS011;6425;50.316;8.114;2023-11-21T16:09:00;31.6;;;15.5;;
12721;SDS011;6425;50.316;8.114;2023-11-21T16:12:00;29.3;;;15.7;;
12721;SDS011;6425;50.316;8.114;2023-11-21T16:15:00;30.5;;;16.7;;
12721;SDS011;6425;50.316;8.114;2023-11-21T16:18:00;30.5;;;16.7;;
12721;SDS011;6425;50.316;8.114;2023-11-21T16:21:00;31.6;;;15.5;;
12721;SDS011;6425;50.316;8.114;2023-11-21T16:24:00;31.6;;;15.5;;
12721;SDS011;6425;50.316;8.114;2023-11-21T16:27:00;33.3;;;16.7;;
12721;SDS011;6425;50.316;8.114;2023-11-21T16:30:00;30.8;;;16;;
12721;SDS011;6425;50.316;8.114;2023-11-21T16:33:00;30.8;;;16;;
12721;SDS011;6425;50.316;8.114;2023-11-21T16:36:00;29.8;;;16.4;;
12721;SDS011;6425;50.316;8.114;2023-11-21T16:39:00;29.8;;;16.4;;
12721;SDS011;6425;50.316;8.114;2023-11-21T16:42:00;35.3;;;17.3;;
12721;SDS011;6425;50.316;8.114;2023-11-21T16:45:00;35.6;;;16.5;;
12721;SDS011;6425;50.316;8.114;2023-11-21T16:48:00;35.6;;;16.5;;
12721;SDS011;6425;50.316;8.114;2023-11-21T16:51:00;31.7;;;16.3;;
12721;SDS011;6425;50.316;8.114;2023-11-21T16:54:00;31.7;;;16.5;;
12721;SDS011;6425;50.316;8.114;2023-11-21T16:57:00;31.7;;;16.6;;
12721;SDS011;6425;50.316;8.114;2023-11-21T17:00:00;31.6;;;15.7;;
12721;SDS011;6425;50.316;8.114;2023-11-21T17:03:00;31.6;;;15.7;;
12721;SDS011;6425;50.316;8.114;2023-11-21T17:06:00;38;;;17.5;;
12721;SDS011;6425;50.316;8.114;2023-11-21T17:09:00;39.4;;;17.7;;
12721;SDS011;6425;50.316;8.114;2023-11-21T17:12:00;39.4;;;17.7;;
12721;SDS011;6425;50.316;8.114;2023-11-21T17:15:00;36.4;;;17.2;;
12721;SDS011;6425;50.316;8.114;2023-11-21T17:18:00;36.4;;;17.2;;
12721;SDS011;6425;50.316;8.114;2023-11-21T17:21:00;38.9;;;18;;
12721;SDS011;6425;50.316;8.114;2023-11-21T17:24:00;37.3;;;17.5;;
12721;SDS011;6425;50.316;8.114;2023-11-21T17:27:00;37.3;;;17.5;;
12721;SDS011;6425;50.316;8.114;2023-11-21T17:30:00;37;;;18.3;;
12721;SDS011;6425;50.316;8.114;2023-11-21T17:33:00;37;;;18.3;;
12721;SDS011;6425;50.316;8.114;2023-11-21T17:36:00;39;;;20.3;;
12721;SDS011;6425;50.316;8.114;2023-11-21T17:39:00;37.2;;;19.7;;
12721;SDS011;6425;50.316;8.114;2023-11-21T17:42:00;37.2;;;19.7;;
12721;SDS011;6425;50.316;8.114;2023-11-21T17:45:00;99.2;;;51.9;;
12721;SDS011;6425;50.316;8.114;2023-11-21T17:48:00;99.2;;;51.9;;
12721;SDS011;6425;50.316;8.114;2023-11-21T17:51:00;42;;;22.3;;
12721;SDS011;6425;50.316;8.114;2023-11-21T17:54:00;36.4;;;20;;
12721;SDS011;6425;50.316;8.114;2023-11-21T17:57:00;36.4;;;20;;
12721;SDS011;6425;50.316;8.114;2023-11-21T18:00:00;30.7;;;17.7;;
12721;SDS011;6425;50.316;8.114;2023-11-21T18:03:00;30.7;;;17.7;;
12721;SDS011;6425;50.316;8.114;2023-11-21T18:06:00;30.4;;;16.8;;
12721;SDS011;6425;50.316;8.114;2023-11-21T18:09:00;31.5;;;18;;
12721;SDS011;6425;50.316;8.114;2023-11-21T18:12:00;31.5;;;18;;
12721;SDS011;6425;50.316;8.114;2023-11-21T18:15:00;33.5;;;17.5;;
12721;SDS011;6425;50.316;8.114;2023-11-21T18:18:00;33.5;;;17.5;;
12721;SDS011;6425;50.316;8.114;2023-11-21T18:21:00;27.2;;;14.7;;
12721;SDS011;6425;50.316;8.114;2023-11-21T18:24:00;10.7;;;7;;
12721;SDS011;6425;50.316;8.114;2023-11-21T18:27:00;10.7;;;7;;
12721;SDS011;6425;50.316;8.114;2023-11-21T18:30:00;8.9;;;7.3;;
12721;SDS011;6425;50.316;8.114;2023-11-21T18:33:00;8.9;;;7.3;;
12721;SDS011;6425;50.316;8.114;2023-11-21T18:36:00;7.8;;;6.1;;
12721;SDS011;6425;50.316;8.114;2023-11-21T18:39:00;10.9;;;8.2;;